Darstellungsparameter: Aktuell verwendete Einstellungen:
Skalierung der Graphiken ... ?
xyx+y,   Skalierungsfaktor:      Skalierung: Modus: x, Faktor: 1
Darstellungszeitraum ... ?
Vom - - bis: - -   Zeitraum: 17.09.2021 - 17.09.2021
Min/Max/Avg-Anzeige ... ?
Zeige MMA aktuell
Zeige MMA Monat
Zeige MMA alles
Zeige --A aktuell
Zeige --A Monat
Zeige --A alles
Keine MMA-Anzeige
MMA:
Average (ber die Originaldaten)
MMA-Basis: 17.09.2021 - 17.09.2021
Quicknavigation für Darstellung... ?
Tage:      1T, 2T, 3T, 5T -1T -2T -3T -5T +1T +2T +3T +5T
Wochen: 1W, 2W, 3W -1W -2W -3W +1W +2W +3W
Monate: 1M, 3M, 6M -1M -3M -6M +1M +3M +6M
Jahre:    1J, 3J, 5J, 10J -1J -3J -5J -10J +1J +3J +5J +10J
Nutze für die Darstellung ... ?
Originaldaten oder Mittelwerte auf ...
Stundenbasis Tagesbasis Wochenbasis
Monatsbasis Jahresbasis      Datenbasis: Original-Daten
Darstellen als:
Statistik (Auto) Statistik J:M      Darstellung:
Zur Graphik,    zurück zur Übersicht aller Sensoren.
 
Tabellarische Datenbersicht: ?
 
Sensor: Nr:Datum:Temp:Abs-Feuchte:Windchill:Wind:
Aussen-T/F 1 17-09-2021 00:00:00 13.1 C 10.73 g/m*3 13.1 C 1.6 km/h
2 17-09-2021 00:05:00 13 C 10.66 g/m*3 13 C 1.6 km/h
3 17-09-2021 00:10:00 12.9 C 10.59 g/m*3 12.9 C 1.6 km/h
4 17-09-2021 00:15:00 12.9 C 10.59 g/m*3 12.9 C 1.6 km/h
5 17-09-2021 00:20:00 12.9 C 10.59 g/m*3 12.9 C 0 km/h
6 17-09-2021 00:25:00 12.9 C 10.59 g/m*3 12.9 C 3.2 km/h
7 17-09-2021 00:30:00 12.9 C 10.59 g/m*3 12.9 C 0 km/h
8 17-09-2021 00:35:00 12.9 C 10.71 g/m*3 12.9 C 0 km/h
9 17-09-2021 00:40:00 13 C 10.77 g/m*3 13 C 0 km/h
10 17-09-2021 00:45:00 13 C 10.77 g/m*3 13 C 0 km/h
11 17-09-2021 00:50:00 13 C 10.77 g/m*3 13 C 0 km/h
12 17-09-2021 00:55:00 12.9 C 10.71 g/m*3 12.9 C 1.6 km/h
13 17-09-2021 01:00:00 12.9 C 10.71 g/m*3 12.9 C 0 km/h
14 17-09-2021 01:05:00 12.8 C 10.64 g/m*3 12.8 C 3.2 km/h
15 17-09-2021 01:10:00 12.8 C 10.64 g/m*3 12.8 C 3.2 km/h
16 17-09-2021 01:15:00 12.8 C 10.64 g/m*3 12.8 C 0 km/h
17 17-09-2021 01:20:00 12.7 C 10.58 g/m*3 12.7 C 0 km/h
18 17-09-2021 01:25:00 12.7 C 10.58 g/m*3 12.7 C 0 km/h
19 17-09-2021 01:30:00 12.6 C 10.4 g/m*3 12.6 C 0 km/h
20 17-09-2021 01:35:00 12.4 C 10.27 g/m*3 12.4 C 0 km/h
21 17-09-2021 01:40:00 12.3 C 10.21 g/m*3 12.3 C 1.6 km/h
22 17-09-2021 01:45:00 12.2 C 10.14 g/m*3 12.2 C 0 km/h
23 17-09-2021 01:50:00 12.1 C 10.08 g/m*3 12.1 C 0 km/h
24 17-09-2021 01:55:00 12.1 C 10.19 g/m*3 12.1 C 0 km/h
25 17-09-2021 02:00:00 12.1 C 10.19 g/m*3 12.1 C 0 km/h
Sensor: Nr:Datum:Temp:Abs-Feuchte:Windchill:Wind:
Aussen-T/F 26 17-09-2021 02:05:00 12 C 10.12 g/m*3 12 C 0 km/h
27 17-09-2021 02:10:00 11.9 C 10.06 g/m*3 11.9 C 0 km/h
28 17-09-2021 02:15:00 11.9 C 10.06 g/m*3 11.9 C 0 km/h
29 17-09-2021 02:20:00 11.8 C 10 g/m*3 11.8 C 0 km/h
30 17-09-2021 02:25:00 11.7 C 9.94 g/m*3 11.7 C 0 km/h
31 17-09-2021 02:30:00 11.6 C 9.87 g/m*3 11.6 C 0 km/h
32 17-09-2021 02:35:00 11.6 C 9.87 g/m*3 11.6 C 1.6 km/h
33 17-09-2021 02:40:00 11.5 C 9.81 g/m*3 11.5 C 0 km/h
34 17-09-2021 02:45:00 11.4 C 9.75 g/m*3 11.4 C 0 km/h
35 17-09-2021 02:50:00 11.4 C 9.75 g/m*3 11.4 C 0 km/h
36 17-09-2021 02:55:00 11.3 C 9.69 g/m*3 11.3 C 0 km/h
37 17-09-2021 03:00:00 11.3 C 9.69 g/m*3 11.3 C 0 km/h
38 17-09-2021 03:05:00 11.2 C 9.63 g/m*3 11.2 C 0 km/h
39 17-09-2021 03:10:00 11.2 C 9.63 g/m*3 11.2 C 0 km/h
40 17-09-2021 03:15:00 11.2 C 9.63 g/m*3 11.2 C 3.2 km/h
41 17-09-2021 03:20:00 11.2 C 9.63 g/m*3 11.2 C 1.6 km/h
42 17-09-2021 03:25:00 11.2 C 9.63 g/m*3 11.2 C 0 km/h
43 17-09-2021 03:30:00 11.1 C 9.57 g/m*3 11.1 C 1.6 km/h
44 17-09-2021 03:35:00 11.1 C 9.57 g/m*3 11.1 C 1.6 km/h
45 17-09-2021 03:40:00 11.1 C 9.67 g/m*3 11.1 C 0 km/h
46 17-09-2021 03:45:00 11.2 C 9.63 g/m*3 11.2 C 1.6 km/h
47 17-09-2021 03:50:00 11.2 C 9.73 g/m*3 11.2 C 0 km/h
48 17-09-2021 03:55:00 11.2 C 9.73 g/m*3 11.2 C 0 km/h
49 17-09-2021 04:00:00 11.2 C 9.63 g/m*3 11.2 C 0 km/h
50 17-09-2021 04:05:00 11.1 C 9.57 g/m*3 11.1 C 0 km/h
Sensor: Nr:Datum:Temp:Abs-Feuchte:Windchill:Wind:
Aussen-T/F 51 17-09-2021 04:10:00 11.1 C 9.57 g/m*3 11.1 C 0 km/h
52 17-09-2021 04:15:00 10.9 C 9.45 g/m*3 10.9 C 0 km/h
53 17-09-2021 04:20:00 10.9 C 9.45 g/m*3 10.9 C 0 km/h
54 17-09-2021 04:25:00 10.8 C 9.39 g/m*3 10.8 C 0 km/h
55 17-09-2021 04:30:00 10.8 C 9.49 g/m*3 10.8 C 0 km/h
56 17-09-2021 04:35:00 10.8 C 9.39 g/m*3 10.8 C 0 km/h
57 17-09-2021 04:40:00 10.8 C 9.39 g/m*3 10.8 C 0 km/h
58 17-09-2021 04:45:00 10.8 C 9.49 g/m*3 10.8 C 0 km/h
59 17-09-2021 04:50:00 10.9 C 9.55 g/m*3 10.9 C 0 km/h
60 17-09-2021 04:55:00 10.9 C 9.55 g/m*3 10.9 C 0 km/h
61 17-09-2021 05:00:00 11 C 9.61 g/m*3 11 C 0 km/h
62 17-09-2021 05:05:00 11.1 C 9.67 g/m*3 11.1 C 0 km/h
63 17-09-2021 05:10:00 11.1 C 9.67 g/m*3 11.1 C 0 km/h
64 17-09-2021 05:15:00 11.1 C 9.67 g/m*3 11.1 C 0 km/h
65 17-09-2021 05:20:00 11.1 C 9.67 g/m*3 11.1 C 0 km/h
66 17-09-2021 05:25:00 11.1 C 9.67 g/m*3 11.1 C 0 km/h
67 17-09-2021 05:30:00 11.1 C 9.67 g/m*3 11.1 C 0 km/h
68 17-09-2021 05:35:00 11.1 C 9.67 g/m*3 11.1 C 0 km/h
69 17-09-2021 05:40:00 11.1 C 9.67 g/m*3 11.1 C 0 km/h
70 17-09-2021 05:45:00 11.1 C 9.67 g/m*3 11.1 C 0 km/h
71 17-09-2021 05:50:00 11.2 C 9.73 g/m*3 11.2 C 0 km/h
72 17-09-2021 05:55:00 11.2 C 9.73 g/m*3 11.2 C 0 km/h
73 17-09-2021 06:00:00 11.3 C 9.79 g/m*3 11.3 C 0 km/h
74 17-09-2021 06:05:00 11.3 C 9.79 g/m*3 11.3 C 0 km/h
75 17-09-2021 06:10:00 11.3 C 9.79 g/m*3 11.3 C 0 km/h
Sensor: Nr:Datum:Temp:Abs-Feuchte:Windchill:Wind:
Aussen-T/F 76 17-09-2021 06:15:00 11.4 C 9.85 g/m*3 11.4 C 0 km/h
77 17-09-2021 06:20:00 11.3 C 9.79 g/m*3 11.3 C 0 km/h
78 17-09-2021 06:25:00 11.3 C 9.79 g/m*3 11.3 C 0 km/h
79 17-09-2021 06:30:00 11.3 C 9.79 g/m*3 11.3 C 0 km/h
80 17-09-2021 06:35:00 11.3 C 9.79 g/m*3 11.3 C 0 km/h
81 17-09-2021 06:40:00 11.3 C 9.79 g/m*3 11.3 C 0 km/h
82 17-09-2021 06:45:00 11.2 C 9.73 g/m*3 11.2 C 0 km/h
83 17-09-2021 06:50:00 11.3 C 9.79 g/m*3 11.3 C 0 km/h
84 17-09-2021 06:55:00 11.3 C 9.79 g/m*3 11.3 C 0 km/h
85 17-09-2021 07:00:00 11.2 C 9.73 g/m*3 11.2 C 0 km/h
86 17-09-2021 07:05:00 11.2 C 9.73 g/m*3 11.2 C 0 km/h
87 17-09-2021 07:10:00 11.2 C 9.73 g/m*3 11.2 C 0 km/h
88 17-09-2021 07:15:00 11.2 C 9.73 g/m*3 11.2 C 0 km/h
89 17-09-2021 07:20:00 11.2 C 9.73 g/m*3 11.2 C 0 km/h
90 17-09-2021 07:25:00 11.2 C 9.73 g/m*3 11.2 C 0 km/h
91 17-09-2021 07:30:00 11.1 C 9.67 g/m*3 11.1 C 0 km/h
92 17-09-2021 07:35:00 11.1 C 9.67 g/m*3 11.1 C 0 km/h
93 17-09-2021 07:40:00 11.1 C 9.67 g/m*3 11.1 C 0 km/h
94 17-09-2021 07:45:00 11.1 C 9.67 g/m*3 11.1 C 0 km/h
95 17-09-2021 07:50:00 11.2 C 9.73 g/m*3 11.2 C 0 km/h
96 17-09-2021 07:55:00 11.2 C 9.73 g/m*3 11.2 C 0 km/h
97 17-09-2021 08:00:00 11.2 C 9.73 g/m*3 11.2 C 0 km/h
98 17-09-2021 08:05:00 11.3 C 9.79 g/m*3 11.3 C 0 km/h
99 17-09-2021 08:10:00 11.3 C 9.79 g/m*3 11.3 C 0 km/h
100 17-09-2021 08:15:00 11.3 C 9.89 g/m*3 11.3 C 0 km/h
Sensor: Nr:Datum:Temp:Abs-Feuchte:Windchill:Wind:
Aussen-T/F 101 17-09-2021 08:20:00 11.4 C 9.96 g/m*3 11.4 C 0 km/h
102 17-09-2021 08:25:00 11.5 C 10.02 g/m*3 11.5 C 0 km/h
103 17-09-2021 08:30:00 11.6 C 10.08 g/m*3 11.6 C 0 km/h
104 17-09-2021 08:35:00 11.7 C 10.15 g/m*3 11.7 C 0 km/h
105 17-09-2021 08:40:00 11.8 C 10.21 g/m*3 11.8 C 0 km/h
106 17-09-2021 08:45:00 11.9 C 10.27 g/m*3 11.9 C 0 km/h
107 17-09-2021 08:50:00 12.1 C 10.4 g/m*3 12.1 C 0 km/h
108 17-09-2021 08:55:00 12.2 C 10.47 g/m*3 12.2 C 0 km/h
109 17-09-2021 09:00:00 12.2 C 10.47 g/m*3 12.2 C 0 km/h
110 17-09-2021 09:05:00 12.3 C 10.53 g/m*3 12.3 C 0 km/h
111 17-09-2021 09:10:00 12.3 C 10.53 g/m*3 12.3 C 0 km/h
112 17-09-2021 09:15:00 12.5 C 10.66 g/m*3 12.5 C 0 km/h
113 17-09-2021 09:20:00 12.6 C 10.73 g/m*3 12.6 C 0 km/h
114 17-09-2021 09:25:00 12.7 C 10.8 g/m*3 12.7 C 0 km/h
115 17-09-2021 09:30:00 12.8 C 10.87 g/m*3 12.8 C 0 km/h
116 17-09-2021 09:35:00 12.8 C 10.87 g/m*3 12.8 C 0 km/h
117 17-09-2021 09:40:00 12.9 C 10.93 g/m*3 12.9 C 0 km/h
118 17-09-2021 09:45:00 13 C 11 g/m*3 13 C 0 km/h
119 17-09-2021 09:50:00 13.1 C 11.07 g/m*3 13.1 C 0 km/h
120 17-09-2021 09:55:00 13.2 C 11.14 g/m*3 13.2 C 0 km/h
121 17-09-2021 10:00:00 13.2 C 11.14 g/m*3 13.2 C 0 km/h
122 17-09-2021 10:05:00 13.3 C 11.09 g/m*3 13.3 C 0 km/h
123 17-09-2021 10:10:00 13.4 C 11.28 g/m*3 13.4 C 0 km/h
124 17-09-2021 10:15:00 13.5 C 11.23 g/m*3 13.5 C 0 km/h
125 17-09-2021 10:20:00 13.6 C 11.3 g/m*3 13.6 C 0 km/h
Sensor: Nr:Datum:Temp:Abs-Feuchte:Windchill:Wind:
Aussen-T/F 126 17-09-2021 10:25:00 13.7 C 11.37 g/m*3 13.7 C 0 km/h
127 17-09-2021 10:30:00 13.8 C 11.44 g/m*3 13.8 C 0 km/h
128 17-09-2021 10:35:00 13.8 C 11.44 g/m*3 13.8 C 0 km/h
129 17-09-2021 10:40:00 13.9 C 11.51 g/m*3 13.9 C 0 km/h
130 17-09-2021 10:45:00 14 C 11.46 g/m*3 14 C 0 km/h
131 17-09-2021 10:50:00 14.1 C 11.53 g/m*3 14.1 C 0 km/h
132 17-09-2021 10:55:00 14.2 C 11.6 g/m*3 14.2 C 0 km/h
133 17-09-2021 11:00:00 14.3 C 11.67 g/m*3 14.3 C 0 km/h
134 17-09-2021 11:05:00 14.4 C 11.62 g/m*3 14.4 C 0 km/h
135 17-09-2021 11:10:00 14.6 C 11.76 g/m*3 14.6 C 0 km/h
136 17-09-2021 11:15:00 14.6 C 11.64 g/m*3 14.6 C 0 km/h
137 17-09-2021 11:20:00 14.7 C 11.71 g/m*3 14.7 C 0 km/h
138 17-09-2021 11:25:00 14.8 C 11.78 g/m*3 14.8 C 0 km/h
139 17-09-2021 11:30:00 14.9 C 11.73 g/m*3 14.9 C 0 km/h
140 17-09-2021 11:35:00 15.1 C 12 g/m*3 15.1 C 0 km/h
141 17-09-2021 11:40:00 15.3 C 12.14 g/m*3 15.3 C 0 km/h
142 17-09-2021 11:45:00 15.6 C 12.23 g/m*3 15.6 C 0 km/h
143 17-09-2021 11:50:00 15.7 C 12.18 g/m*3 15.7 C 0 km/h
144 17-09-2021 11:55:00 15.9 C 12.19 g/m*3 15.9 C 0 km/h
145 17-09-2021 12:00:00 16.1 C 12.34 g/m*3 16.1 C 0 km/h
146 17-09-2021 12:05:00 16.2 C 12.41 g/m*3 16.2 C 0 km/h
147 17-09-2021 12:10:00 16.4 C 12.42 g/m*3 16.4 C 0 km/h
148 17-09-2021 12:15:00 16.6 C 12.29 g/m*3 16.6 C 0 km/h
149 17-09-2021 12:20:00 16.8 C 12.44 g/m*3 16.8 C 0 km/h
150 17-09-2021 12:25:00 16.9 C 12.37 g/m*3 16.9 C 0 km/h
Sensor: Nr:Datum:Temp:Abs-Feuchte:Windchill:Wind:
Aussen-T/F 151 17-09-2021 12:30:00 17.1 C 12.52 g/m*3 17.1 C 0 km/h
152 17-09-2021 12:35:00 17.3 C 12.52 g/m*3 17.3 C 0 km/h
153 17-09-2021 12:40:00 17.4 C 12.45 g/m*3 17.4 C 0 km/h
154 17-09-2021 12:45:00 17.7 C 12.82 g/m*3 17.7 C 0 km/h
155 17-09-2021 12:50:00 17.8 C 12.75 g/m*3 17.8 C 0 km/h
156 17-09-2021 12:55:00 17.9 C 12.67 g/m*3 17.9 C 0 km/h
157 17-09-2021 13:00:00 18.1 C 12.82 g/m*3 18.1 C 0 km/h
158 17-09-2021 13:05:00 18.2 C 12.75 g/m*3 18.2 C 0 km/h
159 17-09-2021 13:10:00 18.3 C 12.82 g/m*3 18.3 C 0 km/h
160 17-09-2021 13:15:00 18.3 C 12.66 g/m*3 18.3 C 0 km/h
161 17-09-2021 13:20:00 18.4 C 12.58 g/m*3 18.4 C 0 km/h
162 17-09-2021 13:25:00 18.4 C 12.58 g/m*3 18.4 C 4.8 km/h
163 17-09-2021 13:30:00 18.5 C 12.82 g/m*3 18.5 C 0 km/h
164 17-09-2021 13:35:00 18.6 C 13.05 g/m*3 18.6 C 0 km/h
165 17-09-2021 13:40:00 18.6 C 12.73 g/m*3 18.6 C 0 km/h
166 17-09-2021 13:45:00 18.7 C 12.81 g/m*3 18.7 C 1.6 km/h
167 17-09-2021 13:50:00 18.7 C 12.81 g/m*3 18.7 C 0 km/h
168 17-09-2021 13:55:00 18.7 C 12.81 g/m*3 18.7 C 0 km/h
169 17-09-2021 14:00:00 18.7 C 12.81 g/m*3 18.7 C 0 km/h
170 17-09-2021 14:05:00 18.8 C 12.88 g/m*3 18.8 C 0 km/h
171 17-09-2021 14:10:00 18.8 C 12.88 g/m*3 18.8 C 0 km/h
172 17-09-2021 14:15:00 18.9 C 12.64 g/m*3 18.9 C 0 km/h
173 17-09-2021 14:20:00 18.9 C 12.96 g/m*3 18.9 C 0 km/h
174 17-09-2021 14:25:00 18.9 C 12.47 g/m*3 18.9 C 0 km/h
175 17-09-2021 14:30:00 18.9 C 12.64 g/m*3 18.9 C 0 km/h
Sensor: Nr:Datum:Temp:Abs-Feuchte:Windchill:Wind:
Aussen-T/F 176 17-09-2021 14:35:00 18.9 C 12.31 g/m*3 18.9 C 0 km/h
177 17-09-2021 14:40:00 18.9 C 12.64 g/m*3 18.9 C 0 km/h
178 17-09-2021 14:45:00 18.9 C 12.8 g/m*3 18.9 C 0 km/h
179 17-09-2021 14:50:00 19 C 12.71 g/m*3 19 C 0 km/h
180 17-09-2021 14:55:00 19.1 C 13.28 g/m*3 19.1 C 0 km/h
181 17-09-2021 15:00:00 19.2 C 13.03 g/m*3 19.2 C 0 km/h
182 17-09-2021 15:05:00 19.2 C 12.53 g/m*3 19.2 C 0 km/h
183 17-09-2021 15:10:00 19.2 C 12.37 g/m*3 19.2 C 0 km/h
184 17-09-2021 15:15:00 19.2 C 12.2 g/m*3 19.2 C 0 km/h
185 17-09-2021 15:20:00 19.2 C 12.2 g/m*3 19.2 C 0 km/h
186 17-09-2021 15:25:00 19.2 C 12.53 g/m*3 19.2 C 0 km/h
187 17-09-2021 15:30:00 19.3 C 12.44 g/m*3 19.3 C 0 km/h
188 17-09-2021 15:35:00 19.3 C 12.44 g/m*3 19.3 C 0 km/h
189 17-09-2021 15:40:00 19.4 C 13.01 g/m*3 19.4 C 0 km/h
190 17-09-2021 15:45:00 19.4 C 13.01 g/m*3 19.4 C 0 km/h
191 17-09-2021 15:50:00 19.5 C 12.75 g/m*3 19.5 C 0 km/h
192 17-09-2021 15:55:00 19.4 C 12.85 g/m*3 19.4 C 0 km/h
193 17-09-2021 16:00:00 19.5 C 13.09 g/m*3 19.5 C 0 km/h
194 17-09-2021 16:05:00 19.6 C 13.67 g/m*3 19.6 C 0 km/h
195 17-09-2021 16:10:00 19.7 C 14.09 g/m*3 19.7 C 0 km/h
196 17-09-2021 16:15:00 19.7 C 14.09 g/m*3 19.7 C 0 km/h
197 17-09-2021 16:20:00 19.7 C 14.09 g/m*3 19.7 C 0 km/h
198 17-09-2021 16:25:00 19.5 C 13.93 g/m*3 19.5 C 0 km/h
199 17-09-2021 16:30:00 19.4 C 13.68 g/m*3 19.4 C 0 km/h
200 17-09-2021 16:35:00 19.2 C 12.86 g/m*3 19.2 C 0 km/h
Sensor: Nr:Datum:Temp:Abs-Feuchte:Windchill:Wind:
Aussen-T/F 201 17-09-2021 16:40:00 19.1 C 12.46 g/m*3 19.1 C 0 km/h
202 17-09-2021 16:45:00 19.1 C 12.46 g/m*3 19.1 C 0 km/h
203 17-09-2021 16:50:00 19.2 C 12.7 g/m*3 19.2 C 0 km/h
204 17-09-2021 16:55:00 19.4 C 12.68 g/m*3 19.4 C 0 km/h
205 17-09-2021 17:00:00 19.6 C 13.51 g/m*3 19.6 C 0 km/h
206 17-09-2021 17:05:00 19.7 C 13.25 g/m*3 19.7 C 0 km/h
207 17-09-2021 17:10:00 19.9 C 13.4 g/m*3 19.9 C 0 km/h
208 17-09-2021 17:15:00 20.1 C 13.56 g/m*3 20.1 C 0 km/h
209 17-09-2021 17:20:00 20.3 C 13.89 g/m*3 20.3 C 0 km/h
210 17-09-2021 17:25:00 20.7 C 13.86 g/m*3 20.7 C 0 km/h
211 17-09-2021 17:30:00 20.8 C 13.94 g/m*3 20.8 C 0 km/h
212 17-09-2021 17:35:00 21.1 C 14 g/m*3 21.1 C 0 km/h
213 17-09-2021 17:40:00 21.2 C 14.08 g/m*3 21.2 C 0 km/h
214 17-09-2021 17:45:00 21.4 C 14.44 g/m*3 21.4 C 0 km/h
215 17-09-2021 17:50:00 21.5 C 14.14 g/m*3 21.5 C 0 km/h
216 17-09-2021 17:55:00 21.4 C 14.25 g/m*3 21.4 C 3.2 km/h
217 17-09-2021 18:00:00 21.3 C 13.98 g/m*3 21.3 C 1.6 km/h
218 17-09-2021 18:05:00 20.8 C 13.58 g/m*3 20.8 C 1.6 km/h
219 17-09-2021 18:10:00 20.3 C 13.19 g/m*3 20.3 C 4.8 km/h
220 17-09-2021 18:15:00 19.7 C 12.91 g/m*3 19.7 C 6.4 km/h
221 17-09-2021 18:20:00 19.2 C 12.86 g/m*3 19.2 C 6.4 km/h
222 17-09-2021 18:25:00 18.8 C 12.88 g/m*3 18.8 C 6.4 km/h
223 17-09-2021 18:30:00 18.4 C 12.74 g/m*3 18.4 C 6.4 km/h
224 17-09-2021 18:35:00 18.2 C 12.75 g/m*3 18.2 C 6.4 km/h
225 17-09-2021 18:40:00 17.9 C 12.67 g/m*3 17.9 C 6.4 km/h
Sensor: Nr:Datum:Temp:Abs-Feuchte:Windchill:Wind:
Aussen-T/F 226 17-09-2021 18:45:00 17.8 C 12.6 g/m*3 17.8 C 6.4 km/h
227 17-09-2021 18:50:00 17.7 C 12.67 g/m*3 17.7 C 6.4 km/h
228 17-09-2021 18:55:00 17.7 C 12.82 g/m*3 17.7 C 4.8 km/h
229 17-09-2021 19:00:00 17.7 C 12.82 g/m*3 17.7 C 4.8 km/h
230 17-09-2021 19:05:00 17.6 C 12.6 g/m*3 17.6 C 3.2 km/h
231 17-09-2021 19:10:00 17.5 C 12.67 g/m*3 17.5 C 3.2 km/h
232 17-09-2021 19:15:00 17.4 C 12.6 g/m*3 17.4 C 3.2 km/h
233 17-09-2021 19:20:00 17.3 C 12.52 g/m*3 17.3 C 6.4 km/h
234 17-09-2021 19:25:00 17.1 C 12.37 g/m*3 17.1 C 6.4 km/h
235 17-09-2021 19:30:00 16.9 C 12.23 g/m*3 16.9 C 6.4 km/h
236 17-09-2021 19:35:00 16.8 C 12.15 g/m*3 16.8 C 6.4 km/h
237 17-09-2021 19:40:00 16.6 C 12.15 g/m*3 16.6 C 8.1 km/h
238 17-09-2021 19:45:00 16.4 C 12 g/m*3 16.4 C 8.1 km/h
239 17-09-2021 19:50:00 16.3 C 12.07 g/m*3 16.3 C 6.4 km/h
240 17-09-2021 19:55:00 16.1 C 11.79 g/m*3 16.1 C 6.4 km/h
241 17-09-2021 20:00:00 15.9 C 11.78 g/m*3 15.9 C 8.1 km/h
242 17-09-2021 20:05:00 15.7 C 11.64 g/m*3 15.7 C 4.8 km/h
243 17-09-2021 20:10:00 15.6 C 11.57 g/m*3 15.6 C 4.8 km/h
244 17-09-2021 20:15:00 15.5 C 11.63 g/m*3 15.5 C 4.8 km/h
245 17-09-2021 20:20:00 15.4 C 11.56 g/m*3 15.4 C 3.2 km/h
246 17-09-2021 20:25:00 15.3 C 11.49 g/m*3 15.3 C 0 km/h
247 17-09-2021 20:30:00 15.2 C 11.42 g/m*3 15.2 C 0 km/h
248 17-09-2021 20:35:00 15 C 11.41 g/m*3 15 C 0 km/h
249 17-09-2021 20:40:00 14.8 C 11.27 g/m*3 14.8 C 0 km/h
250 17-09-2021 20:45:00 14.7 C 11.21 g/m*3 14.7 C 0 km/h
Sensor: Nr:Datum:Temp:Abs-Feuchte:Windchill:Wind:
Aussen-T/F 251 17-09-2021 20:50:00 14.6 C 11.14 g/m*3 14.6 C 0 km/h
252 17-09-2021 20:55:00 14.5 C 11.19 g/m*3 14.5 C 0 km/h
253 17-09-2021 21:00:00 14.4 C 11.13 g/m*3 14.4 C 0 km/h
254 17-09-2021 21:05:00 14.3 C 11.06 g/m*3 14.3 C 0 km/h
255 17-09-2021 21:10:00 14.2 C 11.11 g/m*3 14.2 C 0 km/h
256 17-09-2021 21:15:00 14.1 C 11.04 g/m*3 14.1 C 0 km/h
257 17-09-2021 21:20:00 14 C 10.98 g/m*3 14 C 0 km/h
258 17-09-2021 21:25:00 13.9 C 10.91 g/m*3 13.9 C 0 km/h
259 17-09-2021 21:30:00 13.8 C 10.96 g/m*3 13.8 C 0 km/h
260 17-09-2021 21:35:00 13.8 C 10.96 g/m*3 13.8 C 0 km/h
261 17-09-2021 21:40:00 13.7 C 10.89 g/m*3 13.7 C 0 km/h
262 17-09-2021 21:45:00 13.6 C 10.83 g/m*3 13.6 C 0 km/h
263 17-09-2021 21:50:00 13.5 C 10.76 g/m*3 13.5 C 0 km/h
264 17-09-2021 21:55:00 13.4 C 10.69 g/m*3 13.4 C 0 km/h
265 17-09-2021 22:00:00 13.3 C 10.63 g/m*3 13.3 C 0 km/h
266 17-09-2021 22:05:00 13.2 C 10.68 g/m*3 13.2 C 0 km/h
267 17-09-2021 22:10:00 13.2 C 10.68 g/m*3 13.2 C 0 km/h
268 17-09-2021 22:15:00 13.1 C 10.61 g/m*3 13.1 C 0 km/h
269 17-09-2021 22:20:00 13.1 C 10.61 g/m*3 13.1 C 0 km/h
270 17-09-2021 22:25:00 13 C 10.55 g/m*3 13 C 0 km/h
271 17-09-2021 22:30:00 12.9 C 10.48 g/m*3 12.9 C 0 km/h
272 17-09-2021 22:35:00 12.8 C 10.42 g/m*3 12.8 C 0 km/h
273 17-09-2021 22:40:00 12.8 C 10.42 g/m*3 12.8 C 0 km/h
274 17-09-2021 22:45:00 12.8 C 10.42 g/m*3 12.8 C 0 km/h
275 17-09-2021 22:50:00 12.7 C 10.46 g/m*3 12.7 C 0 km/h
Sensor: Nr:Datum:Temp:Abs-Feuchte:Windchill:Wind:
Aussen-T/F 276 17-09-2021 22:55:00 12.7 C 10.46 g/m*3 12.7 C 0 km/h
277 17-09-2021 23:00:00 12.6 C 10.4 g/m*3 12.6 C 0 km/h
278 17-09-2021 23:05:00 12.6 C 10.4 g/m*3 12.6 C 0 km/h
279 17-09-2021 23:10:00 12.5 C 10.33 g/m*3 12.5 C 0 km/h
280 17-09-2021 23:15:00 12.4 C 10.27 g/m*3 12.4 C 0 km/h
281 17-09-2021 23:20:00 12.4 C 10.27 g/m*3 12.4 C 0 km/h
282 17-09-2021 23:25:00 12.3 C 10.21 g/m*3 12.3 C 0 km/h
283 17-09-2021 23:30:00 12.3 C 10.21 g/m*3 12.3 C 0 km/h
284 17-09-2021 23:35:00 12.3 C 10.21 g/m*3 12.3 C 0 km/h
285 17-09-2021 23:40:00 12.3 C 10.21 g/m*3 12.3 C 1.6 km/h
286 17-09-2021 23:45:00 12.3 C 10.21 g/m*3 12.3 C 0 km/h
287 17-09-2021 23:50:00 12.2 C 10.14 g/m*3 12.2 C 0 km/h
288 17-09-2021 23:55:00 12.2 C 10.25 g/m*3 12.2 C 0 km/h

Legende:
   Min
   Max


Maximal/Minimal-Werte vom 17.09.2021 - 17.09.2021

Sensor Min Max Avg
Temp
(Aussen-T/F)
10.8 °C
17-09-2021  04:25:00
21.5 °C
17-09-2021  17:50:00
14.58 °C
Abs-Feuchte
(Aussen-T/F)
9.39 g/m*3
17-09-2021  04:25:00
14.44 g/m*3
17-09-2021  17:45:00
11.2 g/m*3
Windchill
(Aussen-T/F)
10.8 C
17-09-2021  04:25:00
21.5 C
17-09-2021  17:50:00
14.53 C

Die Daten stammen von einer Davis Vantage Pro 2 Wetter-Station und werden unter Linux mit der Software wview2wettercgi und aufbereitet. Alle Angaben erfolgen ohne Gewähr für ihre Vollständigkeit oder Richtigkeit.
Kontakt: Rainer Krienke krienke@uni-koblenz.de . Meine Webseiten an der Uni Koblenz oder privat.
Version: $Revision: 0.78 $